Rossford, Ohio
Current Conditions -  °F | °C
As of 12:53 AM on Sunday 21 Dec 2014 (Local Time) from KTDZ Reporting Station
Haze Haze  
Wind Chill: -1°   Ceiling: 3300
Heat Index: -1°   Visibility: 6mi
Dew Point: -4°   Wind: 0mph
Humidity: 79%   Direction: NA
Pressure: 30.29"   Gusts: NA
Location:  41.61°N, 83.56°W
Report Text: KTDZ 210553Z AUTO 00000KT 6SM HZ OVC033 M01/M04 A3029 RMK AO2 SLP262 T10111044 11006 21011 58003 TSNO
Loading
Personal Weather Stations






























Interactive Weather Map New forecast layout! Learn more

10-Day Weather Forecast

Advertisements
Track Severe Weather on mobile